Time,TemperatureF,DewpointF,PressureIn,WindDirection,WindDirectionDegrees,WindSpeedMPH,WindSpeedGustMPH,Humidity,HourlyPrecipIn,Conditions,Clouds,dailyrainin,SoftwareType,DateUTC
2013-11-28 00:09:00,30.1,21.0,30.12,SE,138,0.0,0.0,70,0.00,,,0.00,weatherlink.com 1.10,2013-11-28 07:09:00,
2013-11-28 00:24:00,29.3,21.0,30.12,SE,138,0.0,0.0,71,0.00,,,0.00,weatherlink.com 1.10,2013-11-28 07:24:00,
2013-11-28 00:39:00,29.8,21.0,30.13,SSE,150,0.0,1.0,71,0.00,,,0.00,weatherlink.com 1.10,2013-11-28 07:39:00,
2013-11-28 00:54:00,30.9,22.0,30.13,SW,214,0.0,1.0,69,0.00,,,0.00,weatherlink.com 1.10,2013-11-28 07:54:00,
2013-11-28 01:09:00,31.0,22.0,30.13,SSW,211,0.0,1.0,69,0.00,,,0.00,weatherlink.com 1.10,2013-11-28 08:09:00,
2013-11-28 01:24:00,30.8,22.0,30.13,SW,218,0.0,1.0,69,0.00,,,0.00,weatherlink.com 1.10,2013-11-28 08:24:00,
2013-11-28 01:39:00,30.8,22.0,30.13,South,191,0.0,1.0,69,0.00,,,0.00,weatherlink.com 1.10,2013-11-28 08:39:00,
2013-11-28 01:54:00,30.4,21.0,30.14,South,191,0.0,0.0,69,0.00,,,0.00,weatherlink.com 1.10,2013-11-28 08:54:00,
2013-11-28 02:09:00,29.9,21.0,30.14,South,191,0.0,0.0,70,0.00,,,0.00,weatherlink.com 1.10,2013-11-28 09:09:00,
2013-11-28 02:24:00,29.0,21.0,30.14,South,191,0.0,0.0,71,0.00,,,0.00,weatherlink.com 1.10,2013-11-28 09:24:00,
2013-11-28 02:39:00,28.7,21.0,30.14,South,191,0.0,0.0,73,0.00,,,0.00,weatherlink.com 1.10,2013-11-28 09:39:00,
2013-11-28 02:54:00,28.9,21.0,30.14,South,191,0.0,0.0,72,0.00,,,0.00,weatherlink.com 1.10,2013-11-28 09:54:00,
2013-11-28 03:09:00,29.0,21.0,30.14,South,174,0.0,0.0,72,0.00,,,0.00,weatherlink.com 1.10,2013-11-28 10:09:00,
2013-11-28 03:24:00,28.9,21.0,30.14,South,174,0.0,0.0,72,0.00,,,0.00,weatherlink.com 1.10,2013-11-28 10:24:00,
2013-11-28 03:39:00,28.4,21.0,30.13,South,175,0.0,0.0,73,0.00,,,0.00,weatherlink.com 1.10,2013-11-28 10:39:00,
2013-11-28 03:54:00,28.2,21.0,30.13,South,174,0.0,1.0,73,0.00,,,0.00,weatherlink.com 1.10,2013-11-28 10:54:00,
2013-11-28 04:09:00,28.4,20.0,30.14,South,175,0.0,0.0,72,0.00,,,0.00,weatherlink.com 1.10,2013-11-28 11:09:00,
2013-11-28 04:24:00,27.8,21.0,30.14,South,174,0.0,0.0,74,0.00,,,0.00,weatherlink.com 1.10,2013-11-28 11:24:00,
2013-11-28 04:39:00,27.5,20.0,30.14,South,174,0.0,0.0,74,0.00,,,0.00,weatherlink.com 1.10,2013-11-28 11:39:00,
2013-11-28 04:54:00,27.1,20.0,30.15,South,175,0.0,0.0,75,0.00,,,0.00,weatherlink.com 1.10,2013-11-28 11:54:00,
2013-11-28 05:09:00,27.0,20.0,30.15,South,174,0.0,0.0,75,0.00,,,0.00,weatherlink.com 1.10,2013-11-28 12:09:00,
2013-11-28 05:24:00,26.5,20.0,30.16,South,174,0.0,0.0,77,0.00,,,0.00,weatherlink.com 1.10,2013-11-28 12:24:00,
2013-11-28 05:39:00,25.8,20.0,30.16,South,174,0.0,0.0,77,0.00,,,0.00,weatherlink.com 1.10,2013-11-28 12:39:00,
2013-11-28 05:54:00,25.9,20.0,30.16,South,174,0.0,1.0,78,0.00,,,0.00,weatherlink.com 1.10,2013-11-28 12:54:00,
2013-11-28 06:09:00,26.6,20.0,30.16,South,174,0.0,0.0,76,0.00,,,0.00,weatherlink.com 1.10,2013-11-28 13:09:00,
2013-11-28 06:24:00,26.1,20.0,30.17,South,174,0.0,0.0,77,0.00,,,0.00,weatherlink.com 1.10,2013-11-28 13:24:00,
2013-11-28 06:39:00,26.1,20.0,30.17,South,174,0.0,0.0,77,0.00,,,0.00,weatherlink.com 1.10,2013-11-28 13:39:00,
2013-11-28 06:55:00,25.7,20.0,30.17,South,174,0.0,0.0,78,0.00,,,0.00,weatherlink.com 1.10,2013-11-28 13:55:00,
2013-11-28 07:25:00,26.1,20.0,30.18,South,174,0.0,0.0,78,0.00,,,0.00,weatherlink.com 1.10,2013-11-28 14:25:00,
2013-11-28 07:40:00,26.4,20.0,30.18,South,174,0.0,0.0,78,0.00,,,0.00,weatherlink.com 1.10,2013-11-28 14:40:00,
2013-11-28 07:55:00,27.0,21.0,30.19,South,174,0.0,0.0,79,0.00,,,0.00,weatherlink.com 1.10,2013-11-28 14:55:00,
2013-11-28 08:11:00,29.9,22.0,30.19,South,170,0.0,1.0,72,0.00,,,0.00,weatherlink.com 1.10,2013-11-28 15:11:00,
2013-11-28 08:25:00,32.0,22.0,30.19,SSW,205,0.0,1.0,67,0.00,,,0.00,weatherlink.com 1.10,2013-11-28 15:25:00,
2013-11-28 08:40:00,33.2,22.0,30.19,SSW,204,0.0,0.0,64,0.00,,,0.00,weatherlink.com 1.10,2013-11-28 15:40:00,
2013-11-28 08:55:00,34.8,22.0,30.19,SSW,207,1.0,2.0,60,0.00,,,0.00,weatherlink.com 1.10,2013-11-28 15:55:00,
2013-11-28 09:25:00,37.7,22.0,30.19,South,179,0.0,1.0,54,0.00,,,0.00,weatherlink.com 1.10,2013-11-28 16:25:00,
2013-11-28 09:40:00,38.8,23.0,30.19,SSW,212,0.0,1.0,53,0.00,,,0.00,weatherlink.com 1.10,2013-11-28 16:40:00,
2013-11-28 09:55:00,39.4,22.0,30.19,NNW,337,0.0,1.0,51,0.00,,,0.00,weatherlink.com 1.10,2013-11-28 16:55:00,
2013-11-28 10:10:00,40.1,22.0,30.19,NNE,12,0.0,2.0,49,0.00,,,0.00,weatherlink.com 1.10,2013-11-28 17:10:00,
2013-11-28 10:25:00,40.9,23.0,30.18,NW,324,2.0,3.0,49,0.00,,,0.00,weatherlink.com 1.10,2013-11-28 17:25:00,
2013-11-28 10:40:00,41.9,23.0,30.18,North,5,1.0,4.0,47,0.00,,,0.00,weatherlink.com 1.10,2013-11-28 17:40:00,
2013-11-28 10:55:00,42.4,24.0,30.17,NNE,15,4.0,4.0,49,0.00,,,0.00,weatherlink.com 1.10,2013-11-28 17:55:00,
2013-11-28 11:10:00,43.0,25.0,30.16,NW,323,0.0,5.0,49,0.00,,,0.00,weatherlink.com 1.10,2013-11-28 18:10:00,
2013-11-28 11:25:00,44.1,26.0,30.16,ENE,72,0.0,5.0,49,0.00,,,0.00,weatherlink.com 1.10,2013-11-28 18:25:00,
2013-11-28 11:40:00,44.1,26.0,30.15,NW,326,1.0,5.0,50,0.00,,,0.00,weatherlink.com 1.10,2013-11-28 18:40:00,
2013-11-28 11:55:00,44.1,27.0,30.15,North,358,1.0,5.0,51,0.00,,,0.00,weatherlink.com 1.10,2013-11-28 18:55:00,
2013-11-28 12:10:00,44.3,27.0,30.14,NNW,329,2.0,5.0,50,0.00,,,0.00,weatherlink.com 1.10,2013-11-28 19:10:00,
2013-11-28 12:25:00,44.7,26.0,30.13,ENE,78,0.0,5.0,48,0.00,,,0.00,weatherlink.com 1.10,2013-11-28 19:25:00,
2013-11-28 12:40:00,45.3,25.0,30.13,NNW,339,1.0,4.0,45,0.00,,,0.00,weatherlink.com 1.10,2013-11-28 19:40:00,
2013-11-28 12:55:00,45.3,25.0,30.12,NNW,340,0.0,3.0,45,0.00,,,0.00,weatherlink.com 1.10,2013-11-28 19:55:00,
2013-11-28 13:10:00,46.1,26.0,30.12,NNW,348,3.0,6.0,45,0.00,,,0.00,weatherlink.com 1.10,2013-11-28 20:10:00,
2013-11-28 13:25:00,46.5,26.0,30.11,North,5,3.0,5.0,45,0.00,,,0.00,weatherlink.com 1.10,2013-11-28 20:25:00,
2013-11-28 13:41:00,46.7,26.0,30.11,NNE,27,2.0,4.0,44,0.00,,,0.00,weatherlink.com 1.10,2013-11-28 20:41:00,
2013-11-28 13:56:00,48.2,26.0,30.11,North,1,2.0,3.0,43,0.00,,,0.00,weatherlink.com 1.10,2013-11-28 20:56:00,
2013-11-28 14:11:00,47.6,26.0,30.11,ENE,67,0.0,3.0,43,0.00,,,0.00,weatherlink.com 1.10,2013-11-28 21:11:00,
2013-11-28 14:26:00,48.0,27.0,30.11,NNE,25,2.0,3.0,44,0.00,,,0.00,weatherlink.com 1.10,2013-11-28 21:26:00,
2013-11-28 14:41:00,47.6,27.0,30.11,WNW,288,1.0,3.0,45,0.00,,,0.00,weatherlink.com 1.10,2013-11-28 21:41:00,
2013-11-28 14:56:00,46.8,26.0,30.11,North,352,2.0,5.0,45,0.00,,,0.00,weatherlink.com 1.10,2013-11-28 21:56:00,
2013-11-28 15:11:00,46.2,26.0,30.11,North,358,2.0,3.0,45,0.00,,,0.00,weatherlink.com 1.10,2013-11-28 22:11:00,
2013-11-28 15:26:00,45.9,26.0,30.12,NNE,32,0.0,3.0,46,0.00,,,0.00,weatherlink.com 1.10,2013-11-28 22:26:00,
2013-11-28 15:41:00,45.7,26.0,30.13,NW,319,0.0,3.0,47,0.00,,,0.00,weatherlink.com 1.10,2013-11-28 22:41:00,
2013-11-28 15:56:00,45.2,26.0,30.13,NNW,336,0.0,3.0,48,0.00,,,0.00,weatherlink.com 1.10,2013-11-28 22:56:00,
2013-11-28 16:11:00,44.5,26.0,30.13,ENE,65,0.0,2.0,49,0.00,,,0.00,weatherlink.com 1.10,2013-11-28 23:11:00,
2013-11-28 16:26:00,43.6,26.0,30.14,NE,41,0.0,1.0,51,0.00,,,0.00,weatherlink.com 1.10,2013-11-28 23:26:00,
2013-11-28 16:41:00,42.4,26.0,30.14,NNE,13,0.0,1.0,53,0.00,,,0.00,weatherlink.com 1.10,2013-11-28 23:41:00,
2013-11-28 16:56:00,41.0,26.0,30.15,NNE,13,0.0,0.0,56,0.00,,,0.00,weatherlink.com 1.10,2013-11-28 23:56:00,
2013-11-28 17:11:00,39.8,26.0,30.16,NNE,13,0.0,0.0,58,0.00,,,0.00,weatherlink.com 1.10,2013-11-29 00:11:00,
2013-11-28 17:26:00,38.3,26.0,30.17,NNE,13,0.0,0.0,62,0.00,,,0.00,weatherlink.com 1.10,2013-11-29 00:26:00,
2013-11-28 17:41:00,37.2,26.0,30.17,NNE,13,0.0,0.0,64,0.00,,,0.00,weatherlink.com 1.10,2013-11-29 00:41:00,
2013-11-28 17:56:00,36.0,26.0,30.17,NNE,13,0.0,0.0,67,0.00,,,0.00,weatherlink.com 1.10,2013-11-29 00:56:00,
2013-11-28 18:11:00,35.1,26.0,30.17,NNE,13,0.0,0.0,69,0.00,,,0.00,weatherlink.com 1.10,2013-11-29 01:11:00,
2013-11-28 18:26:00,34.3,26.0,30.18,NNE,13,0.0,0.0,71,0.00,,,0.00,weatherlink.com 1.10,2013-11-29 01:26:00,
2013-11-28 18:41:00,33.6,25.0,30.17,NNE,13,0.0,0.0,71,0.00,,,0.00,weatherlink.com 1.10,2013-11-29 01:41:00,
2013-11-28 18:56:00,32.9,25.0,30.18,NNE,13,0.0,0.0,73,0.00,,,0.00,weatherlink.com 1.10,2013-11-29 01:56:00,
2013-11-28 19:11:00,32.6,25.0,30.18,NNE,13,0.0,0.0,74,0.00,,,0.00,weatherlink.com 1.10,2013-11-29 02:11:00,
2013-11-28 19:26:00,33.0,26.0,30.18,NNE,13,0.0,0.0,74,0.00,,,0.00,weatherlink.com 1.10,2013-11-29 02:26:00,
2013-11-28 19:41:00,32.8,25.0,30.19,NNE,13,0.0,0.0,74,0.00,,,0.00,weatherlink.com 1.10,2013-11-29 02:41:00,
2013-11-28 19:56:00,32.3,25.0,30.19,NNE,13,0.0,0.0,74,0.00,,,0.00,weatherlink.com 1.10,2013-11-29 02:56:00,
2013-11-28 20:11:00,32.2,25.0,30.19,NNE,13,0.0,0.0,76,0.00,,,0.00,weatherlink.com 1.10,2013-11-29 03:11:00,
2013-11-28 20:26:00,31.8,25.0,30.19,NNE,15,0.0,1.0,76,0.00,,,0.00,weatherlink.com 1.10,2013-11-29 03:26:00,
2013-11-28 20:41:00,31.6,25.0,30.18,SE,140,0.0,0.0,76,0.00,,,0.00,weatherlink.com 1.10,2013-11-29 03:41:00,
2013-11-28 20:56:00,31.0,24.0,30.18,SE,139,0.0,0.0,76,0.00,,,0.00,weatherlink.com 1.10,2013-11-29 03:56:00,
2013-11-28 21:11:00,30.2,24.0,30.18,SE,140,0.0,0.0,78,0.00,,,0.00,weatherlink.com 1.10,2013-11-29 04:11:00,
2013-11-28 21:26:00,30.4,25.0,30.18,SSE,158,0.0,1.0,79,0.00,,,0.00,weatherlink.com 1.10,2013-11-29 04:26:00,
2013-11-28 21:41:00,30.6,25.0,30.19,SSE,158,0.0,0.0,78,0.00,,,0.00,weatherlink.com 1.10,2013-11-29 04:41:00,
2013-11-28 21:56:00,30.6,25.0,30.18,SSE,158,0.0,0.0,78,0.00,,,0.00,weatherlink.com 1.10,2013-11-29 04:56:00,
2013-11-28 22:11:00,30.5,24.0,30.18,SSE,158,0.0,0.0,77,0.00,,,0.00,weatherlink.com 1.10,2013-11-29 05:11:00,
2013-11-28 22:26:00,29.8,24.0,30.18,SSE,158,0.0,0.0,78,0.00,,,0.00,weatherlink.com 1.10,2013-11-29 05:26:00,
2013-11-28 22:41:00,28.9,23.0,30.18,SSE,158,0.0,0.0,78,0.00,,,0.00,weatherlink.com 1.10,2013-11-29 05:41:00,
2013-11-28 22:56:00,28.0,23.0,30.18,SSE,158,0.0,0.0,80,0.00,,,0.00,weatherlink.com 1.10,2013-11-29 05:56:00,
2013-11-28 23:11:00,27.5,22.0,30.18,SSE,158,0.0,0.0,81,0.00,,,0.00,weatherlink.com 1.10,2013-11-29 06:11:00,
2013-11-28 23:26:00,27.1,22.0,30.18,SSE,158,0.0,0.0,82,0.00,,,0.00,weatherlink.com 1.10,2013-11-29 06:26:00,
2013-11-28 23:41:00,27.3,23.0,30.18,SSE,158,0.0,0.0,82,0.00,,,0.00,weatherlink.com 1.10,2013-11-29 06:41:00,
2013-11-28 23:56:00,26.9,22.0,30.18,SSE,158,0.0,0.0,83,0.00,,,0.00,weatherlink.com 1.10,2013-11-29 06:56:00,